sensor_id;sensor_type;location;lat;lon;timestamp;P1;durP1;ratioP1;P2;durP2;ratioP2
22754;SDS011;11544;42.020;23.094;2024-03-17T00:05:32;7.32;;;5.53;;
22754;SDS011;11544;42.020;23.094;2024-03-17T00:07:58;9.38;;;5.30;;
22754;SDS011;11544;42.020;23.094;2024-03-17T00:10:24;9.50;;;5.45;;
22754;SDS011;11544;42.020;23.094;2024-03-17T00:12:50;6.40;;;5.55;;
22754;SDS011;11544;42.020;23.094;2024-03-17T00:15:16;8.02;;;5.65;;
22754;SDS011;11544;42.020;23.094;2024-03-17T00:17:42;6.18;;;4.95;;
22754;SDS011;11544;42.020;23.094;2024-03-17T00:20:08;9.57;;;6.10;;
22754;SDS011;11544;42.020;23.094;2024-03-17T00:22:39;11.15;;;6.38;;
22754;SDS011;11544;42.020;23.094;2024-03-17T00:25:06;10.68;;;7.43;;
22754;SDS011;11544;42.020;23.094;2024-03-17T00:27:33;8.45;;;6.80;;
22754;SDS011;11544;42.020;23.094;2024-03-17T00:30:05;8.57;;;7.03;;
22754;SDS011;11544;42.020;23.094;2024-03-17T00:32:35;11.40;;;7.63;;
22754;SDS011;11544;42.020;23.094;2024-03-17T00:35:06;12.52;;;9.85;;
22754;SDS011;11544;42.020;23.094;2024-03-17T00:37:33;14.32;;;9.80;;
22754;SDS011;11544;42.020;23.094;2024-03-17T00:40:00;13.98;;;9.57;;
22754;SDS011;11544;42.020;23.094;2024-03-17T00:42:26;12.43;;;9.60;;
22754;SDS011;11544;42.020;23.094;2024-03-17T00:44:52;13.13;;;9.85;;
22754;SDS011;11544;42.020;23.094;2024-03-17T00:47:18;13.80;;;9.32;;
22754;SDS011;11544;42.020;23.094;2024-03-17T00:49:44;15.07;;;9.57;;
22754;SDS011;11544;42.020;23.094;2024-03-17T00:52:19;14.40;;;9.57;;
22754;SDS011;11544;42.020;23.094;2024-03-17T00:54:46;15.50;;;9.02;;
22754;SDS011;11544;42.020;23.094;2024-03-17T00:57:13;17.27;;;9.55;;
22754;SDS011;11544;42.020;23.094;2024-03-17T00:59:41;12.80;;;9.65;;
22754;SDS011;11544;42.020;23.094;2024-03-17T01:02:10;12.30;;;9.10;;
22754;SDS011;11544;42.020;23.094;2024-03-17T01:04:39;13.15;;;9.10;;
22754;SDS011;11544;42.020;23.094;2024-03-17T01:07:05;16.60;;;10.45;;
22754;SDS011;11544;42.020;23.094;2024-03-17T01:09:31;15.00;;;10.27;;
22754;SDS011;11544;42.020;23.094;2024-03-17T01:11:57;16.05;;;10.35;;
22754;SDS011;11544;42.020;23.094;2024-03-17T01:14:23;12.40;;;9.95;;
22754;SDS011;11544;42.020;23.094;2024-03-17T01:16:52;12.93;;;9.98;;
22754;SDS011;11544;42.020;23.094;2024-03-17T01:19:18;14.35;;;9.73;;
22754;SDS011;11544;42.020;23.094;2024-03-17T01:21:44;13.75;;;10.70;;
22754;SDS011;11544;42.020;23.094;2024-03-17T01:24:09;14.52;;;9.65;;
22754;SDS011;11544;42.020;23.094;2024-03-17T01:26:35;16.67;;;10.88;;
22754;SDS011;11544;42.020;23.094;2024-03-17T01:29:01;17.40;;;10.40;;
22754;SDS011;11544;42.020;23.094;2024-03-17T01:31:28;16.48;;;10.23;;
22754;SDS011;11544;42.020;23.094;2024-03-17T01:33:54;16.80;;;10.70;;
22754;SDS011;11544;42.020;23.094;2024-03-17T01:36:21;16.90;;;10.43;;
22754;SDS011;11544;42.020;23.094;2024-03-17T01:38:47;18.75;;;11.20;;
22754;SDS011;11544;42.020;23.094;2024-03-17T01:41:13;14.20;;;10.43;;
22754;SDS011;11544;42.020;23.094;2024-03-17T01:43:39;13.38;;;7.82;;
22754;SDS011;11544;42.020;23.094;2024-03-17T01:46:06;10.27;;;7.75;;
22754;SDS011;11544;42.020;23.094;2024-03-17T01:48:36;8.40;;;6.68;;
22754;SDS011;11544;42.020;23.094;2024-03-17T01:51:02;9.60;;;6.80;;
22754;SDS011;11544;42.020;23.094;2024-03-17T01:53:28;11.25;;;7.05;;
22754;SDS011;11544;42.020;23.094;2024-03-17T01:55:56;9.25;;;6.22;;
22754;SDS011;11544;42.020;23.094;2024-03-17T01:58:24;7.78;;;5.88;;
22754;SDS011;11544;42.020;23.094;2024-03-17T02:00:51;9.77;;;6.97;;
22754;SDS011;11544;42.020;23.094;2024-03-17T02:03:20;9.25;;;6.63;;
22754;SDS011;11544;42.020;23.094;2024-03-17T02:05:46;14.95;;;9.73;;
22754;SDS011;11544;42.020;23.094;2024-03-17T02:08:13;13.70;;;9.20;;
22754;SDS011;11544;42.020;23.094;2024-03-17T02:10:39;14.00;;;9.73;;
22754;SDS011;11544;42.020;23.094;2024-03-17T02:13:05;18.25;;;10.15;;
22754;SDS011;11544;42.020;23.094;2024-03-17T02:15:31;13.93;;;9.70;;
22754;SDS011;11544;42.020;23.094;2024-03-17T02:17:58;15.13;;;10.48;;
22754;SDS011;11544;42.020;23.094;2024-03-17T02:20:24;14.57;;;10.55;;
22754;SDS011;11544;42.020;23.094;2024-03-17T02:23:10;13.82;;;10.23;;
22754;SDS011;11544;42.020;23.094;2024-03-17T02:25:36;12.25;;;9.75;;
22754;SDS011;11544;42.020;23.094;2024-03-17T02:28:02;17.80;;;10.65;;
22754;SDS011;11544;42.020;23.094;2024-03-17T02:30:30;15.60;;;9.85;;
22754;SDS011;11544;42.020;23.094;2024-03-17T02:32:56;13.60;;;9.93;;
22754;SDS011;11544;42.020;23.094;2024-03-17T02:35:22;14.70;;;10.75;;
22754;SDS011;11544;42.020;23.094;2024-03-17T02:37:49;16.50;;;9.85;;
22754;SDS011;11544;42.020;23.094;2024-03-17T02:40:15;13.10;;;10.13;;
22754;SDS011;11544;42.020;23.094;2024-03-17T02:42:42;17.23;;;10.25;;
22754;SDS011;11544;42.020;23.094;2024-03-17T02:45:10;15.38;;;9.85;;
22754;SDS011;11544;42.020;23.094;2024-03-17T02:47:40;16.20;;;10.90;;
22754;SDS011;11544;42.020;23.094;2024-03-17T02:50:07;12.90;;;9.73;;
22754;SDS011;11544;42.020;23.094;2024-03-17T02:52:34;21.63;;;10.85;;
22754;SDS011;11544;42.020;23.094;2024-03-17T02:55:00;15.38;;;10.35;;
22754;SDS011;11544;42.020;23.094;2024-03-17T02:57:26;15.55;;;10.95;;
22754;SDS011;11544;42.020;23.094;2024-03-17T02:59:58;15.55;;;10.57;;
22754;SDS011;11544;42.020;23.094;2024-03-17T03:02:24;17.90;;;10.77;;
22754;SDS011;11544;42.020;23.094;2024-03-17T03:04:50;13.02;;;9.85;;
22754;SDS011;11544;42.020;23.094;2024-03-17T03:07:16;15.23;;;10.05;;
22754;SDS011;11544;42.020;23.094;2024-03-17T03:09:42;14.93;;;10.70;;
22754;SDS011;11544;42.020;23.094;2024-03-17T03:12:08;16.25;;;10.93;;
22754;SDS011;11544;42.020;23.094;2024-03-17T03:14:34;20.10;;;9.80;;
22754;SDS011;11544;42.020;23.094;2024-03-17T03:17:00;15.82;;;10.45;;
22754;SDS011;11544;42.020;23.094;2024-03-17T03:19:28;13.18;;;9.77;;
22754;SDS011;11544;42.020;23.094;2024-03-17T03:21:55;15.02;;;10.38;;
22754;SDS011;11544;42.020;23.094;2024-03-17T03:24:21;15.13;;;10.43;;
22754;SDS011;11544;42.020;23.094;2024-03-17T03:26:47;15.00;;;10.75;;
22754;SDS011;11544;42.020;23.094;2024-03-17T03:29:14;15.85;;;11.55;;
22754;SDS011;11544;42.020;23.094;2024-03-17T03:31:40;13.95;;;10.70;;
22754;SDS011;11544;42.020;23.094;2024-03-17T03:34:06;22.17;;;12.23;;
22754;SDS011;11544;42.020;23.094;2024-03-17T03:36:34;16.70;;;11.48;;
22754;SDS011;11544;42.020;23.094;2024-03-17T03:39:01;14.23;;;10.40;;
22754;SDS011;11544;42.020;23.094;2024-03-17T03:41:30;20.17;;;12.20;;
22754;SDS011;11544;42.020;23.094;2024-03-17T03:43:57;16.27;;;11.95;;
22754;SDS011;11544;42.020;23.094;2024-03-17T03:46:22;17.73;;;11.60;;
22754;SDS011;11544;42.020;23.094;2024-03-17T03:48:48;16.25;;;10.88;;
22754;SDS011;11544;42.020;23.094;2024-03-17T03:51:14;17.65;;;11.95;;
22754;SDS011;11544;42.020;23.094;2024-03-17T03:53:58;17.20;;;11.65;;
22754;SDS011;11544;42.020;23.094;2024-03-17T03:56:24;19.98;;;12.32;;
22754;SDS011;11544;42.020;23.094;2024-03-17T03:58:51;18.20;;;11.32;;
22754;SDS011;11544;42.020;23.094;2024-03-17T04:01:16;17.50;;;12.20;;
22754;SDS011;11544;42.020;23.094;2024-03-17T04:03:47;19.85;;;12.18;;
22754;SDS011;11544;42.020;23.094;2024-03-17T04:06:14;22.15;;;12.45;;
22754;SDS011;11544;42.020;23.094;2024-03-17T04:08:41;23.88;;;12.70;;
22754;SDS011;11544;42.020;23.094;2024-03-17T04:11:07;19.10;;;11.95;;
22754;SDS011;11544;42.020;23.094;2024-03-17T04:13:34;17.38;;;12.27;;
22754;SDS011;11544;42.020;23.094;2024-03-17T04:16:00;16.50;;;12.35;;
22754;SDS011;11544;42.020;23.094;2024-03-17T04:18:30;19.25;;;12.13;;
22754;SDS011;11544;42.020;23.094;2024-03-17T04:20:57;18.02;;;12.60;;
22754;SDS011;11544;42.020;23.094;2024-03-17T04:23:26;17.13;;;11.63;;
22754;SDS011;11544;42.020;23.094;2024-03-17T04:25:52;18.08;;;10.93;;
22754;SDS011;11544;42.020;23.094;2024-03-17T04:28:18;15.38;;;10.43;;
22754;SDS011;11544;42.020;23.094;2024-03-17T04:30:44;18.40;;;11.73;;
22754;SDS011;11544;42.020;23.094;2024-03-17T04:33:14;19.05;;;11.25;;
22754;SDS011;11544;42.020;23.094;2024-03-17T04:35:42;19.73;;;12.05;;
22754;SDS011;11544;42.020;23.094;2024-03-17T04:38:08;19.48;;;10.95;;
22754;SDS011;11544;42.020;23.094;2024-03-17T04:40:35;19.25;;;12.45;;
22754;SDS011;11544;42.020;23.094;2024-03-17T04:43:09;16.83;;;11.75;;
22754;SDS011;11544;42.020;23.094;2024-03-17T04:45:38;20.92;;;13.10;;
22754;SDS011;11544;42.020;23.094;2024-03-17T04:48:04;19.02;;;12.45;;
22754;SDS011;11544;42.020;23.094;2024-03-17T04:50:31;17.80;;;12.15;;
22754;SDS011;11544;42.020;23.094;2024-03-17T04:52:58;17.48;;;11.18;;
22754;SDS011;11544;42.020;23.094;2024-03-17T04:55:25;17.85;;;12.32;;
22754;SDS011;11544;42.020;23.094;2024-03-17T04:57:51;13.50;;;9.77;;
22754;SDS011;11544;42.020;23.094;2024-03-17T05:00:17;18.10;;;11.70;;
22754;SDS011;11544;42.020;23.094;2024-03-17T05:02:44;19.50;;;11.30;;
22754;SDS011;11544;42.020;23.094;2024-03-17T05:05:10;16.08;;;10.52;;
22754;SDS011;11544;42.020;23.094;2024-03-17T05:07:36;22.27;;;12.52;;
22754;SDS011;11544;42.020;23.094;2024-03-17T05:10:03;17.58;;;12.32;;
22754;SDS011;11544;42.020;23.094;2024-03-17T05:12:29;21.92;;;12.07;;
22754;SDS011;11544;42.020;23.094;2024-03-17T05:14:55;16.20;;;11.30;;
22754;SDS011;11544;42.020;23.094;2024-03-17T05:17:21;23.33;;;13.32;;
22754;SDS011;11544;42.020;23.094;2024-03-17T05:19:47;15.50;;;11.50;;
22754;SDS011;11544;42.020;23.094;2024-03-17T05:22:13;16.25;;;11.63;;
22754;SDS011;11544;42.020;23.094;2024-03-17T05:24:38;24.10;;;14.65;;
22754;SDS011;11544;42.020;23.094;2024-03-17T05:27:04;16.85;;;11.82;;
22754;SDS011;11544;42.020;23.094;2024-03-17T05:29:30;22.45;;;12.65;;
22754;SDS011;11544;42.020;23.094;2024-03-17T05:31:56;21.02;;;12.20;;
22754;SDS011;11544;42.020;23.094;2024-03-17T05:34:22;17.75;;;12.18;;
22754;SDS011;11544;42.020;23.094;2024-03-17T05:36:50;20.63;;;13.70;;
22754;SDS011;11544;42.020;23.094;2024-03-17T05:39:16;22.95;;;14.55;;
22754;SDS011;11544;42.020;23.094;2024-03-17T05:41:42;16.83;;;12.57;;
22754;SDS011;11544;42.020;23.094;2024-03-17T05:44:09;19.45;;;12.35;;
22754;SDS011;11544;42.020;23.094;2024-03-17T05:46:35;19.90;;;11.13;;
22754;SDS011;11544;42.020;23.094;2024-03-17T05:49:01;18.65;;;11.57;;
22754;SDS011;11544;42.020;23.094;2024-03-17T05:51:28;15.20;;;11.27;;
22754;SDS011;11544;42.020;23.094;2024-03-17T05:53:54;19.15;;;12.23;;
22754;SDS011;11544;42.020;23.094;2024-03-17T05:56:21;26.05;;;14.57;;
22754;SDS011;11544;42.020;23.094;2024-03-17T05:58:48;22.00;;;13.65;;
22754;SDS011;11544;42.020;23.094;2024-03-17T06:01:14;20.65;;;14.10;;
22754;SDS011;11544;42.020;23.094;2024-03-17T06:03:40;23.55;;;13.77;;
22754;SDS011;11544;42.020;23.094;2024-03-17T06:06:07;18.15;;;12.52;;
22754;SDS011;11544;42.020;23.094;2024-03-17T06:08:37;18.75;;;12.57;;
22754;SDS011;11544;42.020;23.094;2024-03-17T06:11:04;19.98;;;12.55;;
22754;SDS011;11544;42.020;23.094;2024-03-17T06:13:30;21.42;;;12.88;;
22754;SDS011;11544;42.020;23.094;2024-03-17T06:15:56;23.40;;;12.38;;
22754;SDS011;11544;42.020;23.094;2024-03-17T06:18:26;20.65;;;13.27;;
22754;SDS011;11544;42.020;23.094;2024-03-17T06:20:52;19.33;;;12.38;;
22754;SDS011;11544;42.020;23.094;2024-03-17T06:23:18;17.38;;;11.80;;
22754;SDS011;11544;42.020;23.094;2024-03-17T06:25:47;16.98;;;12.38;;
22754;SDS011;11544;42.020;23.094;2024-03-17T06:28:14;19.05;;;12.73;;
22754;SDS011;11544;42.020;23.094;2024-03-17T06:30:45;19.27;;;13.63;;
22754;SDS011;11544;42.020;23.094;2024-03-17T06:33:19;24.83;;;13.43;;
22754;SDS011;11544;42.020;23.094;2024-03-17T06:35:46;20.00;;;12.98;;
22754;SDS011;11544;42.020;23.094;2024-03-17T06:38:13;18.38;;;12.35;;
22754;SDS011;11544;42.020;23.094;2024-03-17T06:40:40;24.98;;;13.30;;
22754;SDS011;11544;42.020;23.094;2024-03-17T06:43:07;22.77;;;13.38;;
22754;SDS011;11544;42.020;23.094;2024-03-17T06:45:33;19.80;;;13.48;;
22754;SDS011;11544;42.020;23.094;2024-03-17T06:47:59;22.65;;;13.80;;
22754;SDS011;11544;42.020;23.094;2024-03-17T06:50:25;23.90;;;13.65;;
22754;SDS011;11544;42.020;23.094;2024-03-17T06:52:51;17.77;;;12.98;;
22754;SDS011;11544;42.020;23.094;2024-03-17T06:55:18;18.23;;;11.88;;
22754;SDS011;11544;42.020;23.094;2024-03-17T06:57:46;19.98;;;12.52;;
22754;SDS011;11544;42.020;23.094;2024-03-17T07:00:13;19.80;;;12.55;;
22754;SDS011;11544;42.020;23.094;2024-03-17T07:02:40;18.38;;;12.05;;
22754;SDS011;11544;42.020;23.094;2024-03-17T07:05:12;17.40;;;11.30;;
22754;SDS011;11544;42.020;23.094;2024-03-17T07:07:42;17.17;;;11.45;;
22754;SDS011;11544;42.020;23.094;2024-03-17T07:10:09;16.23;;;11.43;;
22754;SDS011;11544;42.020;23.094;2024-03-17T07:12:40;18.10;;;11.73;;
22754;SDS011;11544;42.020;23.094;2024-03-17T07:15:07;20.73;;;11.70;;
22754;SDS011;11544;42.020;23.094;2024-03-17T07:17:33;25.50;;;12.55;;
22754;SDS011;11544;42.020;23.094;2024-03-17T07:20:00;16.65;;;10.90;;
22754;SDS011;11544;42.020;23.094;2024-03-17T07:22:26;14.60;;;11.10;;
22754;SDS011;11544;42.020;23.094;2024-03-17T07:24:53;17.85;;;11.77;;
22754;SDS011;11544;42.020;23.094;2024-03-17T07:27:26;15.93;;;11.80;;
22754;SDS011;11544;42.020;23.094;2024-03-17T07:29:53;17.13;;;11.88;;
22754;SDS011;11544;42.020;23.094;2024-03-17T07:32:19;19.65;;;11.20;;
22754;SDS011;11544;42.020;23.094;2024-03-17T07:34:45;16.52;;;11.05;;
22754;SDS011;11544;42.020;23.094;2024-03-17T07:37:11;15.95;;;12.00;;
22754;SDS011;11544;42.020;23.094;2024-03-17T07:39:37;21.50;;;10.60;;
22754;SDS011;11544;42.020;23.094;2024-03-17T07:42:03;18.92;;;11.75;;
22754;SDS011;11544;42.020;23.094;2024-03-17T07:44:29;17.58;;;11.60;;
22754;SDS011;11544;42.020;23.094;2024-03-17T07:47:00;16.05;;;11.35;;
22754;SDS011;11544;42.020;23.094;2024-03-17T07:49:26;20.30;;;12.63;;
22754;SDS011;11544;42.020;23.094;2024-03-17T07:51:52;21.40;;;12.93;;
22754;SDS011;11544;42.020;23.094;2024-03-17T07:54:18;20.50;;;13.13;;
22754;SDS011;11544;42.020;23.094;2024-03-17T07:56:45;16.23;;;11.95;;
22754;SDS011;11544;42.020;23.094;2024-03-17T07:59:11;18.17;;;12.85;;
22754;SDS011;11544;42.020;23.094;2024-03-17T08:01:41;16.38;;;11.95;;
22754;SDS011;11544;42.020;23.094;2024-03-17T08:04:07;17.02;;;10.82;;
22754;SDS011;11544;42.020;23.094;2024-03-17T08:06:33;21.75;;;12.70;;
22754;SDS011;11544;42.020;23.094;2024-03-17T08:08:59;18.65;;;12.45;;
22754;SDS011;11544;42.020;23.094;2024-03-17T08:11:25;18.08;;;12.10;;
22754;SDS011;11544;42.020;23.094;2024-03-17T08:13:51;17.10;;;10.95;;
22754;SDS011;11544;42.020;23.094;2024-03-17T08:16:18;19.15;;;12.48;;
22754;SDS011;11544;42.020;23.094;2024-03-17T08:18:44;15.38;;;11.75;;
22754;SDS011;11544;42.020;23.094;2024-03-17T08:21:10;15.80;;;11.52;;
22754;SDS011;11544;42.020;23.094;2024-03-17T08:23:36;21.27;;;11.88;;
22754;SDS011;11544;42.020;23.094;2024-03-17T08:26:07;15.85;;;11.98;;
22754;SDS011;11544;42.020;23.094;2024-03-17T08:28:34;17.50;;;12.10;;
22754;SDS011;11544;42.020;23.094;2024-03-17T08:31:01;16.42;;;11.48;;
22754;SDS011;11544;42.020;23.094;2024-03-17T08:33:29;16.75;;;12.23;;
22754;SDS011;11544;42.020;23.094;2024-03-17T08:35:57;16.08;;;11.45;;
22754;SDS011;11544;42.020;23.094;2024-03-17T08:38:24;16.27;;;12.48;;
22754;SDS011;11544;42.020;23.094;2024-03-17T08:40:51;16.05;;;11.77;;
22754;SDS011;11544;42.020;23.094;2024-03-17T08:43:18;18.63;;;12.23;;
22754;SDS011;11544;42.020;23.094;2024-03-17T08:45:45;16.33;;;11.88;;
22754;SDS011;11544;42.020;23.094;2024-03-17T08:48:19;18.88;;;11.02;;
22754;SDS011;11544;42.020;23.094;2024-03-17T08:50:52;17.33;;;11.63;;
22754;SDS011;11544;42.020;23.094;2024-03-17T08:53:19;16.23;;;11.32;;
22754;SDS011;11544;42.020;23.094;2024-03-17T08:55:46;16.40;;;11.88;;
22754;SDS011;11544;42.020;23.094;2024-03-17T08:58:11;14.80;;;12.38;;
22754;SDS011;11544;42.020;23.094;2024-03-17T09:00:37;14.77;;;11.55;;
22754;SDS011;11544;42.020;23.094;2024-03-17T09:03:03;23.23;;;12.30;;
22754;SDS011;11544;42.020;23.094;2024-03-17T09:05:32;16.65;;;11.70;;
22754;SDS011;11544;42.020;23.094;2024-03-17T09:07:58;20.75;;;13.05;;
22754;SDS011;11544;42.020;23.094;2024-03-17T09:10:24;16.52;;;12.10;;
22754;SDS011;11544;42.020;23.094;2024-03-17T09:12:50;17.80;;;11.65;;
22754;SDS011;11544;42.020;23.094;2024-03-17T09:15:16;16.42;;;10.90;;
22754;SDS011;11544;42.020;23.094;2024-03-17T09:17:42;14.40;;;10.95;;
22754;SDS011;11544;42.020;23.094;2024-03-17T09:20:10;14.88;;;11.23;;
22754;SDS011;11544;42.020;23.094;2024-03-17T09:22:38;17.80;;;11.32;;
22754;SDS011;11544;42.020;23.094;2024-03-17T09:25:07;15.77;;;11.20;;
22754;SDS011;11544;42.020;23.094;2024-03-17T09:27:34;13.63;;;9.82;;
22754;SDS011;11544;42.020;23.094;2024-03-17T09:30:05;13.95;;;9.48;;
22754;SDS011;11544;42.020;23.094;2024-03-17T09:32:37;10.20;;;7.78;;
22754;SDS011;11544;42.020;23.094;2024-03-17T09:35:06;11.52;;;7.82;;
22754;SDS011;11544;42.020;23.094;2024-03-17T09:37:33;11.38;;;8.02;;
22754;SDS011;11544;42.020;23.094;2024-03-17T09:39:59;9.73;;;7.72;;
22754;SDS011;11544;42.020;23.094;2024-03-17T09:42:25;14.02;;;9.63;;
22754;SDS011;11544;42.020;23.094;2024-03-17T09:44:54;12.57;;;8.60;;
22754;SDS011;11544;42.020;23.094;2024-03-17T09:47:22;10.10;;;7.80;;
22754;SDS011;11544;42.020;23.094;2024-03-17T09:49:49;12.30;;;7.68;;
22754;SDS011;11544;42.020;23.094;2024-03-17T09:52:23;12.02;;;7.97;;
22754;SDS011;11544;42.020;23.094;2024-03-17T09:57:19;7.72;;;6.13;;
22754;SDS011;11544;42.020;23.094;2024-03-17T09:59:51;10.18;;;7.72;;
22754;SDS011;11544;42.020;23.094;2024-03-17T10:02:19;10.10;;;7.97;;
22754;SDS011;11544;42.020;23.094;2024-03-17T10:04:45;10.13;;;7.25;;
22754;SDS011;11544;42.020;23.094;2024-03-17T10:07:11;8.30;;;6.65;;
22754;SDS011;11544;42.020;23.094;2024-03-17T10:09:37;7.95;;;6.35;;
22754;SDS011;11544;42.020;23.094;2024-03-17T10:12:04;11.82;;;8.00;;
22754;SDS011;11544;42.020;23.094;2024-03-17T10:14:31;7.57;;;5.55;;
22754;SDS011;11544;42.020;23.094;2024-03-17T10:16:58;9.05;;;4.97;;
22754;SDS011;11544;42.020;23.094;2024-03-17T10:19:24;6.80;;;5.10;;
22754;SDS011;11544;42.020;23.094;2024-03-17T10:21:59;7.78;;;5.47;;
22754;SDS011;11544;42.020;23.094;2024-03-17T10:24:26;6.95;;;4.50;;
22754;SDS011;11544;42.020;23.094;2024-03-17T10:26:54;7.70;;;5.90;;
22754;SDS011;11544;42.020;23.094;2024-03-17T10:29:28;5.80;;;4.32;;
22754;SDS011;11544;42.020;23.094;2024-03-17T10:31:59;8.50;;;5.07;;
22754;SDS011;11544;42.020;23.094;2024-03-17T10:34:28;7.13;;;4.28;;
22754;SDS011;11544;42.020;23.094;2024-03-17T10:39:36;6.00;;;3.92;;
22754;SDS011;11544;42.020;23.094;2024-03-17T10:42:04;6.03;;;3.30;;
22754;SDS011;11544;42.020;23.094;2024-03-17T10:44:31;5.05;;;3.30;;
22754;SDS011;11544;42.020;23.094;2024-03-17T10:47:00;4.50;;;3.90;;
22754;SDS011;11544;42.020;23.094;2024-03-17T10:49:30;7.50;;;4.55;;
22754;SDS011;11544;42.020;23.094;2024-03-17T10:52:06;9.48;;;5.38;;
22754;SDS011;11544;42.020;23.094;2024-03-17T10:54:40;6.40;;;4.32;;
22754;SDS011;11544;42.020;23.094;2024-03-17T10:59:58;15.48;;;7.82;;
22754;SDS011;11544;42.020;23.094;2024-03-17T11:02:26;14.43;;;5.93;;
22754;SDS011;11544;42.020;23.094;2024-03-17T11:05:01;5.72;;;4.38;;
22754;SDS011;11544;42.020;23.094;2024-03-17T11:07:29;6.85;;;4.35;;
22754;SDS011;11544;42.020;23.094;2024-03-17T11:09:57;5.78;;;4.10;;
22754;SDS011;11544;42.020;23.094;2024-03-17T11:12:41;5.68;;;3.88;;
22754;SDS011;11544;42.020;23.094;2024-03-17T11:17:45;5.07;;;3.70;;
22754;SDS011;11544;42.020;23.094;2024-03-17T11:22:57;5.97;;;3.88;;
22754;SDS011;11544;42.020;23.094;2024-03-17T11:27:56;7.15;;;3.95;;
22754;SDS011;11544;42.020;23.094;2024-03-17T11:38:54;4.70;;;3.92;;
22754;SDS011;11544;42.020;23.094;2024-03-17T11:46:55;4.60;;;3.63;;
22754;SDS011;11544;42.020;23.094;2024-03-17T11:51:54;5.43;;;3.80;;
22754;SDS011;11544;42.020;23.094;2024-03-17T11:54:29;7.05;;;4.43;;
22754;SDS011;11544;42.020;23.094;2024-03-17T11:57:06;6.18;;;4.10;;
22754;SDS011;11544;42.020;23.094;2024-03-17T11:59:34;4.97;;;3.83;;
22754;SDS011;11544;42.020;23.094;2024-03-17T12:02:00;8.80;;;5.10;;
22754;SDS011;11544;42.020;23.094;2024-03-17T12:04:29;6.07;;;3.78;;
22754;SDS011;11544;42.020;23.094;2024-03-17T12:06:55;4.78;;;3.60;;
22754;SDS011;11544;42.020;23.094;2024-03-17T12:09:23;6.85;;;3.85;;
22754;SDS011;11544;42.020;23.094;2024-03-17T12:11:50;5.55;;;3.65;;
22754;SDS011;11544;42.020;23.094;2024-03-17T12:14:36;6.90;;;4.18;;
22754;SDS011;11544;42.020;23.094;2024-03-17T12:17:04;6.18;;;4.82;;
22754;SDS011;11544;42.020;23.094;2024-03-17T12:19:34;7.47;;;4.70;;
22754;SDS011;11544;42.020;23.094;2024-03-17T12:22:01;6.38;;;4.55;;
22754;SDS011;11544;42.020;23.094;2024-03-17T12:24:30;4.60;;;4.05;;
22754;SDS011;11544;42.020;23.094;2024-03-17T12:26:58;6.30;;;4.32;;
22754;SDS011;11544;42.020;23.094;2024-03-17T12:29:30;6.10;;;4.18;;
22754;SDS011;11544;42.020;23.094;2024-03-17T12:32:16;8.20;;;4.13;;
22754;SDS011;11544;42.020;23.094;2024-03-17T12:34:43;5.18;;;4.32;;
22754;SDS011;11544;42.020;23.094;2024-03-17T12:39:46;5.78;;;3.70;;
22754;SDS011;11544;42.020;23.094;2024-03-17T12:42:13;5.90;;;4.53;;
22754;SDS011;11544;42.020;23.094;2024-03-17T12:47:24;7.78;;;4.32;;
22754;SDS011;11544;42.020;23.094;2024-03-17T12:49:52;6.45;;;4.25;;
22754;SDS011;11544;42.020;23.094;2024-03-17T12:52:19;4.88;;;4.00;;
22754;SDS011;11544;42.020;23.094;2024-03-17T12:54:59;6.50;;;4.15;;
22754;SDS011;11544;42.020;23.094;2024-03-17T12:57:52;4.05;;;3.50;;
22754;SDS011;11544;42.020;23.094;2024-03-17T13:01:01;6.22;;;4.32;;
22754;SDS011;11544;42.020;23.094;2024-03-17T13:03:36;6.60;;;4.20;;
22754;SDS011;11544;42.020;23.094;2024-03-17T13:06:05;5.55;;;4.25;;
22754;SDS011;11544;42.020;23.094;2024-03-17T13:08:35;4.25;;;3.55;;
22754;SDS011;11544;42.020;23.094;2024-03-17T13:11:02;4.80;;;4.32;;
22754;SDS011;11544;42.020;23.094;2024-03-17T13:13:30;7.13;;;4.50;;
22754;SDS011;11544;42.020;23.094;2024-03-17T13:15:57;4.82;;;3.67;;
22754;SDS011;11544;42.020;23.094;2024-03-17T13:18:24;6.28;;;4.13;;
22754;SDS011;11544;42.020;23.094;2024-03-17T13:20:49;7.85;;;4.13;;
22754;SDS011;11544;42.020;23.094;2024-03-17T13:23:16;6.70;;;4.05;;
22754;SDS011;11544;42.020;23.094;2024-03-17T13:25:42;4.32;;;3.55;;
22754;SDS011;11544;42.020;23.094;2024-03-17T13:28:10;6.05;;;3.60;;
22754;SDS011;11544;42.020;23.094;2024-03-17T13:30:36;4.88;;;3.92;;
22754;SDS011;11544;42.020;23.094;2024-03-17T13:33:03;7.22;;;4.55;;
22754;SDS011;11544;42.020;23.094;2024-03-17T13:35:37;6.45;;;4.05;;
22754;SDS011;11544;42.020;23.094;2024-03-17T13:38:08;6.32;;;4.25;;
22754;SDS011;11544;42.020;23.094;2024-03-17T13:40:36;4.35;;;3.47;;
22754;SDS011;11544;42.020;23.094;2024-03-17T13:43:04;9.15;;;4.50;;
22754;SDS011;11544;42.020;23.094;2024-03-17T13:45:48;5.78;;;4.07;;
22754;SDS011;11544;42.020;23.094;2024-03-17T13:48:14;6.28;;;4.80;;
22754;SDS011;11544;42.020;23.094;2024-03-17T13:50:42;9.85;;;6.63;;
22754;SDS011;11544;42.020;23.094;2024-03-17T13:53:10;10.93;;;6.60;;
22754;SDS011;11544;42.020;23.094;2024-03-17T13:55:36;7.00;;;4.95;;
22754;SDS011;11544;42.020;23.094;2024-03-17T13:58:03;5.97;;;4.22;;
22754;SDS011;11544;42.020;23.094;2024-03-17T14:00:30;5.80;;;3.65;;
22754;SDS011;11544;42.020;23.094;2024-03-17T14:03:07;4.70;;;3.80;;
22754;SDS011;11544;42.020;23.094;2024-03-17T14:05:34;5.30;;;3.35;;
22754;SDS011;11544;42.020;23.094;2024-03-17T14:08:01;6.25;;;4.20;;
22754;SDS011;11544;42.020;23.094;2024-03-17T14:10:27;5.10;;;3.92;;
22754;SDS011;11544;42.020;23.094;2024-03-17T14:12:53;4.88;;;4.28;;
22754;SDS011;11544;42.020;23.094;2024-03-17T14:15:19;5.80;;;3.85;;
22754;SDS011;11544;42.020;23.094;2024-03-17T14:17:47;5.22;;;3.97;;
22754;SDS011;11544;42.020;23.094;2024-03-17T14:20:14;12.55;;;4.13;;
22754;SDS011;11544;42.020;23.094;2024-03-17T14:22:43;6.55;;;3.67;;
22754;SDS011;11544;42.020;23.094;2024-03-17T14:25:14;5.07;;;3.70;;
22754;SDS011;11544;42.020;23.094;2024-03-17T14:27:42;5.30;;;3.75;;
22754;SDS011;11544;42.020;23.094;2024-03-17T14:30:08;6.10;;;4.70;;
22754;SDS011;11544;42.020;23.094;2024-03-17T14:32:35;5.07;;;3.67;;
22754;SDS011;11544;42.020;23.094;2024-03-17T14:35:01;7.55;;;4.07;;
22754;SDS011;11544;42.020;23.094;2024-03-17T14:37:28;9.00;;;3.22;;
22754;SDS011;11544;42.020;23.094;2024-03-17T14:39:54;4.88;;;3.45;;
22754;SDS011;11544;42.020;23.094;2024-03-17T14:42:20;5.20;;;3.17;;
22754;SDS011;11544;42.020;23.094;2024-03-17T14:44:46;4.68;;;3.75;;
22754;SDS011;11544;42.020;23.094;2024-03-17T14:47:15;5.25;;;3.65;;
22754;SDS011;11544;42.020;23.094;2024-03-17T14:49:41;4.20;;;3.50;;
22754;SDS011;11544;42.020;23.094;2024-03-17T14:52:07;5.78;;;4.05;;
22754;SDS011;11544;42.020;23.094;2024-03-17T14:54:34;4.82;;;3.38;;
22754;SDS011;11544;42.020;23.094;2024-03-17T14:57:00;4.82;;;3.55;;
22754;SDS011;11544;42.020;23.094;2024-03-17T14:59:26;7.82;;;3.58;;
22754;SDS011;11544;42.020;23.094;2024-03-17T15:01:52;5.03;;;3.90;;
22754;SDS011;11544;42.020;23.094;2024-03-17T15:04:18;5.18;;;3.50;;